sensor_id;sensor_type;location;lat;lon;timestamp;P1;durP1;ratioP1;P2;durP2;ratioP2
7211;SDS011;3647;48.792;9.802;2023-09-12T04:20:12;9.80;;;6.20;;
7211;SDS011;3647;48.792;9.802;2023-09-12T04:22:39;10.27;;;6.50;;
7211;SDS011;3647;48.792;9.802;2023-09-12T04:25:06;8.32;;;5.78;;
7211;SDS011;3647;48.792;9.802;2023-09-12T04:27:33;8.68;;;5.60;;
7211;SDS011;3647;48.792;9.802;2023-09-12T04:30:00;12.70;;;5.65;;
7211;SDS011;3647;48.792;9.802;2023-09-12T04:32:27;9.05;;;6.28;;
7211;SDS011;3647;48.792;9.802;2023-09-12T04:34:54;8.02;;;5.90;;
7211;SDS011;3647;48.792;9.802;2023-09-12T04:37:23;9.73;;;6.40;;
7211;SDS011;3647;48.792;9.802;2023-09-12T04:39:49;7.28;;;5.25;;
7211;SDS011;3647;48.792;9.802;2023-09-12T04:42:16;9.10;;;6.35;;
7211;SDS011;3647;48.792;9.802;2023-09-12T04:44:43;7.25;;;5.70;;
7211;SDS011;3647;48.792;9.802;2023-09-12T04:47:10;10.75;;;6.22;;
7211;SDS011;3647;48.792;9.802;2023-09-12T04:49:37;13.77;;;6.25;;
7211;SDS011;3647;48.792;9.802;2023-09-12T04:52:04;10.77;;;5.53;;
7211;SDS011;3647;48.792;9.802;2023-09-12T04:54:33;10.45;;;6.05;;
7211;SDS011;3647;48.792;9.802;2023-09-12T04:56:59;7.43;;;5.55;;
7211;SDS011;3647;48.792;9.802;2023-09-12T04:59:26;8.02;;;5.88;;
7211;SDS011;3647;48.792;9.802;2023-09-12T05:01:53;9.18;;;6.10;;
7211;SDS011;3647;48.792;9.802;2023-09-12T05:04:19;9.63;;;5.95;;
7211;SDS011;3647;48.792;9.802;2023-09-12T05:06:46;8.20;;;6.20;;
7211;SDS011;3647;48.792;9.802;2023-09-12T05:09:15;7.88;;;5.55;;
7211;SDS011;3647;48.792;9.802;2023-09-12T05:11:43;12.10;;;6.07;;
7211;SDS011;3647;48.792;9.802;2023-09-12T05:14:10;11.68;;;6.10;;
7211;SDS011;3647;48.792;9.802;2023-09-12T05:16:37;7.93;;;5.82;;
7211;SDS011;3647;48.792;9.802;2023-09-12T05:19:04;10.45;;;6.32;;
7211;SDS011;3647;48.792;9.802;2023-09-12T05:21:31;8.07;;;6.00;;
7211;SDS011;3647;48.792;9.802;2023-09-12T05:23:58;9.00;;;6.85;;
7211;SDS011;3647;48.792;9.802;2023-09-12T05:26:25;8.95;;;6.22;;
7211;SDS011;3647;48.792;9.802;2023-09-12T05:28:53;10.07;;;6.50;;
7211;SDS011;3647;48.792;9.802;2023-09-12T05:31:20;11.98;;;6.63;;
7211;SDS011;3647;48.792;9.802;2023-09-12T05:33:47;10.30;;;6.15;;
7211;SDS011;3647;48.792;9.802;2023-09-12T05:36:15;8.45;;;6.13;;
7211;SDS011;3647;48.792;9.802;2023-09-12T05:38:42;8.45;;;6.13;;
7211;SDS011;3647;48.792;9.802;2023-09-12T05:41:09;9.98;;;6.13;;
7211;SDS011;3647;48.792;9.802;2023-09-12T05:43:36;8.50;;;5.90;;
7211;SDS011;3647;48.792;9.802;2023-09-12T05:46:04;9.55;;;6.18;;
7211;SDS011;3647;48.792;9.802;2023-09-12T05:48:31;8.57;;;6.60;;
7211;SDS011;3647;48.792;9.802;2023-09-12T05:50:58;11.68;;;6.35;;
7211;SDS011;3647;48.792;9.802;2023-09-12T05:53:25;10.82;;;7.18;;
7211;SDS011;3647;48.792;9.802;2023-09-12T05:55:53;9.32;;;6.47;;
7211;SDS011;3647;48.792;9.802;2023-09-12T05:58:20;11.90;;;6.43;;
7211;SDS011;3647;48.792;9.802;2023-09-12T06:00:48;9.70;;;6.38;;
7211;SDS011;3647;48.792;9.802;2023-09-12T06:03:16;9.82;;;6.03;;
7211;SDS011;3647;48.792;9.802;2023-09-12T06:05:43;9.40;;;6.28;;
7211;SDS011;3647;48.792;9.802;2023-09-12T06:08:11;7.43;;;6.50;;
7211;SDS011;3647;48.792;9.802;2023-09-12T06:10:38;12.88;;;5.97;;
7211;SDS011;3647;48.792;9.802;2023-09-12T06:13:08;8.82;;;5.85;;
7211;SDS011;3647;48.792;9.802;2023-09-12T06:15:35;7.25;;;5.65;;
7211;SDS011;3647;48.792;9.802;2023-09-12T06:18:02;11.63;;;6.65;;
7211;SDS011;3647;48.792;9.802;2023-09-12T06:20:30;8.23;;;6.13;;
7211;SDS011;3647;48.792;9.802;2023-09-12T06:22:57;9.55;;;5.70;;
7211;SDS011;3647;48.792;9.802;2023-09-12T06:25:25;7.88;;;6.72;;
7211;SDS011;3647;48.792;9.802;2023-09-12T06:27:53;8.05;;;5.60;;
7211;SDS011;3647;48.792;9.802;2023-09-12T06:30:20;10.48;;;6.53;;
7211;SDS011;3647;48.792;9.802;2023-09-12T06:32:47;12.10;;;6.47;;
7211;SDS011;3647;48.792;9.802;2023-09-12T06:35:14;11.18;;;7.63;;
7211;SDS011;3647;48.792;9.802;2023-09-12T06:37:43;9.38;;;5.75;;
7211;SDS011;3647;48.792;9.802;2023-09-12T06:40:12;8.52;;;5.72;;
7211;SDS011;3647;48.792;9.802;2023-09-12T06:42:39;12.20;;;5.85;;
7211;SDS011;3647;48.792;9.802;2023-09-12T06:45:06;11.80;;;6.50;;
7211;SDS011;3647;48.792;9.802;2023-09-12T06:50:59;8.00;;;5.43;;
7211;SDS011;3647;48.792;9.802;2023-09-12T06:53:27;6.93;;;6.07;;
7211;SDS011;3647;48.792;9.802;2023-09-12T06:55:54;7.65;;;5.32;;
7211;SDS011;3647;48.792;9.802;2023-09-12T06:58:22;9.88;;;6.35;;
7211;SDS011;3647;48.792;9.802;2023-09-12T07:00:49;8.07;;;5.72;;
7211;SDS011;3647;48.792;9.802;2023-09-12T07:03:16;12.48;;;6.13;;
7211;SDS011;3647;48.792;9.802;2023-09-12T07:05:43;9.52;;;5.25;;
7211;SDS011;3647;48.792;9.802;2023-09-12T07:08:10;10.18;;;6.15;;
7211;SDS011;3647;48.792;9.802;2023-09-12T07:10:39;7.93;;;5.45;;
7211;SDS011;3647;48.792;9.802;2023-09-12T07:13:11;7.43;;;4.85;;
7211;SDS011;3647;48.792;9.802;2023-09-12T07:15:37;6.60;;;5.35;;
7211;SDS011;3647;48.792;9.802;2023-09-12T07:18:04;9.35;;;6.38;;
7211;SDS011;3647;48.792;9.802;2023-09-12T07:20:31;10.68;;;5.95;;
7211;SDS011;3647;48.792;9.802;2023-09-12T07:22:58;11.40;;;5.95;;
7211;SDS011;3647;48.792;9.802;2023-09-12T07:25:25;7.75;;;5.47;;
7211;SDS011;3647;48.792;9.802;2023-09-12T07:27:55;8.20;;;5.03;;
7211;SDS011;3647;48.792;9.802;2023-09-12T07:30:25;6.75;;;4.82;;
7211;SDS011;3647;48.792;9.802;2023-09-12T07:32:54;8.63;;;5.45;;
7211;SDS011;3647;48.792;9.802;2023-09-12T07:35:22;8.07;;;5.30;;
7211;SDS011;3647;48.792;9.802;2023-09-12T07:37:52;11.07;;;5.28;;
7211;SDS011;3647;48.792;9.802;2023-09-12T07:40:20;10.07;;;5.72;;
7211;SDS011;3647;48.792;9.802;2023-09-12T07:42:47;7.05;;;6.03;;
7211;SDS011;3647;48.792;9.802;2023-09-12T07:45:16;6.88;;;5.68;;
7211;SDS011;3647;48.792;9.802;2023-09-12T07:47:43;6.75;;;5.10;;
7211;SDS011;3647;48.792;9.802;2023-09-12T07:50:13;7.38;;;5.07;;
7211;SDS011;3647;48.792;9.802;2023-09-12T07:52:40;9.98;;;6.22;;
7211;SDS011;3647;48.792;9.802;2023-09-12T07:55:07;8.32;;;5.13;;
7211;SDS011;3647;48.792;9.802;2023-09-12T07:57:37;8.55;;;4.85;;
7211;SDS011;3647;48.792;9.802;2023-09-12T08:00:05;7.28;;;5.60;;
7211;SDS011;3647;48.792;9.802;2023-09-12T08:02:37;7.00;;;5.65;;
7211;SDS011;3647;48.792;9.802;2023-09-12T08:05:04;6.85;;;5.65;;
7211;SDS011;3647;48.792;9.802;2023-09-12T08:07:32;7.10;;;4.65;;
7211;SDS011;3647;48.792;9.802;2023-09-12T08:10:00;7.45;;;4.53;;
7211;SDS011;3647;48.792;9.802;2023-09-12T08:12:27;7.10;;;5.25;;
7211;SDS011;3647;48.792;9.802;2023-09-12T08:14:55;9.10;;;5.57;;
7211;SDS011;3647;48.792;9.802;2023-09-12T08:17:22;7.07;;;4.97;;
7211;SDS011;3647;48.792;9.802;2023-09-12T08:19:51;5.75;;;5.00;;
7211;SDS011;3647;48.792;9.802;2023-09-12T08:22:18;8.77;;;4.80;;
7211;SDS011;3647;48.792;9.802;2023-09-12T08:24:45;5.38;;;4.47;;
7211;SDS011;3647;48.792;9.802;2023-09-12T08:27:13;7.82;;;5.40;;
7211;SDS011;3647;48.792;9.802;2023-09-12T08:29:40;6.22;;;4.63;;
7211;SDS011;3647;48.792;9.802;2023-09-12T08:32:09;7.35;;;4.50;;
7211;SDS011;3647;48.792;9.802;2023-09-12T08:34:36;7.00;;;4.57;;
7211;SDS011;3647;48.792;9.802;2023-09-12T08:37:06;7.05;;;4.78;;
7211;SDS011;3647;48.792;9.802;2023-09-12T08:39:40;6.30;;;5.18;;
7211;SDS011;3647;48.792;9.802;2023-09-12T08:42:08;8.80;;;5.80;;
7211;SDS011;3647;48.792;9.802;2023-09-12T08:44:38;5.63;;;4.82;;
7211;SDS011;3647;48.792;9.802;2023-09-12T08:47:05;5.75;;;4.75;;
7211;SDS011;3647;48.792;9.802;2023-09-12T08:49:34;5.93;;;4.38;;
7211;SDS011;3647;48.792;9.802;2023-09-12T08:52:01;7.00;;;4.90;;
7211;SDS011;3647;48.792;9.802;2023-09-12T08:54:30;9.05;;;5.00;;
7211;SDS011;3647;48.792;9.802;2023-09-12T08:56:57;8.48;;;5.60;;
7211;SDS011;3647;48.792;9.802;2023-09-12T08:59:26;7.40;;;4.80;;
7211;SDS011;3647;48.792;9.802;2023-09-12T09:01:54;5.38;;;4.85;;
7211;SDS011;3647;48.792;9.802;2023-09-12T09:04:23;7.75;;;5.03;;
7211;SDS011;3647;48.792;9.802;2023-09-12T09:06:51;6.45;;;4.97;;
7211;SDS011;3647;48.792;9.802;2023-09-12T09:09:19;5.80;;;4.18;;
7211;SDS011;3647;48.792;9.802;2023-09-12T09:11:50;5.90;;;4.82;;
7211;SDS011;3647;48.792;9.802;2023-09-12T09:14:17;5.68;;;4.50;;
7211;SDS011;3647;48.792;9.802;2023-09-12T09:16:43;8.55;;;4.95;;
7211;SDS011;3647;48.792;9.802;2023-09-12T09:19:11;7.15;;;5.07;;
7211;SDS011;3647;48.792;9.802;2023-09-12T09:21:38;6.25;;;4.88;;
7211;SDS011;3647;48.792;9.802;2023-09-12T09:24:07;7.65;;;6.18;;
7211;SDS011;3647;48.792;9.802;2023-09-12T09:26:44;9.00;;;5.70;;
7211;SDS011;3647;48.792;9.802;2023-09-12T09:29:14;7.25;;;4.97;;
7211;SDS011;3647;48.792;9.802;2023-09-12T09:31:42;7.55;;;4.88;;
7211;SDS011;3647;48.792;9.802;2023-09-12T09:34:10;7.30;;;5.20;;
7211;SDS011;3647;48.792;9.802;2023-09-12T09:36:40;8.27;;;5.47;;
7211;SDS011;3647;48.792;9.802;2023-09-12T09:39:08;8.65;;;5.05;;
7211;SDS011;3647;48.792;9.802;2023-09-12T09:41:36;5.07;;;4.47;;
7211;SDS011;3647;48.792;9.802;2023-09-12T09:44:04;6.75;;;4.80;;
7211;SDS011;3647;48.792;9.802;2023-09-12T09:46:32;6.45;;;5.38;;
7211;SDS011;3647;48.792;9.802;2023-09-12T09:49:00;7.85;;;5.80;;
7211;SDS011;3647;48.792;9.802;2023-09-12T09:51:27;10.00;;;5.45;;
7211;SDS011;3647;48.792;9.802;2023-09-12T09:53:56;7.45;;;5.65;;
7211;SDS011;3647;48.792;9.802;2023-09-12T09:56:25;7.22;;;5.20;;
7211;SDS011;3647;48.792;9.802;2023-09-12T09:58:52;8.50;;;5.95;;
7211;SDS011;3647;48.792;9.802;2023-09-12T10:01:21;7.03;;;5.50;;
7211;SDS011;3647;48.792;9.802;2023-09-12T10:03:51;7.78;;;5.30;;
7211;SDS011;3647;48.792;9.802;2023-09-12T10:06:19;7.07;;;4.82;;
7211;SDS011;3647;48.792;9.802;2023-09-12T10:08:50;9.27;;;5.50;;
7211;SDS011;3647;48.792;9.802;2023-09-12T10:11:18;7.93;;;4.82;;
7211;SDS011;3647;48.792;9.802;2023-09-12T10:13:49;5.93;;;5.07;;
7211;SDS011;3647;48.792;9.802;2023-09-12T10:16:19;7.53;;;5.20;;
7211;SDS011;3647;48.792;9.802;2023-09-12T10:18:56;8.18;;;5.28;;
7211;SDS011;3647;48.792;9.802;2023-09-12T10:21:28;6.78;;;5.28;;
7211;SDS011;3647;48.792;9.802;2023-09-12T10:23:56;5.40;;;4.63;;
7211;SDS011;3647;48.792;9.802;2023-09-12T10:26:25;6.20;;;5.13;;
7211;SDS011;3647;48.792;9.802;2023-09-12T10:28:53;8.43;;;5.13;;
7211;SDS011;3647;48.792;9.802;2023-09-12T10:31:21;5.88;;;5.15;;
7211;SDS011;3647;48.792;9.802;2023-09-12T10:34:00;7.07;;;5.50;;
7211;SDS011;3647;48.792;9.802;2023-09-12T10:36:35;7.07;;;5.28;;
7211;SDS011;3647;48.792;9.802;2023-09-12T10:39:04;5.45;;;4.95;;
7211;SDS011;3647;48.792;9.802;2023-09-12T10:41:33;6.55;;;4.90;;
7211;SDS011;3647;48.792;9.802;2023-09-12T10:44:02;6.50;;;5.10;;
7211;SDS011;3647;48.792;9.802;2023-09-12T10:46:35;6.47;;;5.13;;
7211;SDS011;3647;48.792;9.802;2023-09-12T10:49:07;5.38;;;4.88;;
7211;SDS011;3647;48.792;9.802;2023-09-12T10:51:37;5.32;;;4.55;;
7211;SDS011;3647;48.792;9.802;2023-09-12T10:54:05;5.53;;;5.03;;
7211;SDS011;3647;48.792;9.802;2023-09-12T10:56:38;6.32;;;4.97;;
7211;SDS011;3647;48.792;9.802;2023-09-12T10:59:18;5.22;;;4.72;;
7211;SDS011;3647;48.792;9.802;2023-09-12T11:04:57;6.20;;;4.82;;
7211;SDS011;3647;48.792;9.802;2023-09-12T11:07:31;5.00;;;4.30;;
7211;SDS011;3647;48.792;9.802;2023-09-12T11:10:15;5.60;;;4.97;;
7211;SDS011;3647;48.792;9.802;2023-09-12T11:12:45;6.40;;;5.70;;
7211;SDS011;3647;48.792;9.802;2023-09-12T11:15:13;6.97;;;5.57;;
7211;SDS011;3647;48.792;9.802;2023-09-12T11:17:45;5.47;;;4.97;;
7211;SDS011;3647;48.792;9.802;2023-09-12T11:20:15;6.28;;;5.10;;
7211;SDS011;3647;48.792;9.802;2023-09-12T11:22:43;9.00;;;5.07;;
7211;SDS011;3647;48.792;9.802;2023-09-12T11:25:15;5.07;;;4.57;;
7211;SDS011;3647;48.792;9.802;2023-09-12T11:27:44;5.53;;;4.95;;
7211;SDS011;3647;48.792;9.802;2023-09-12T11:30:12;7.13;;;5.28;;
7211;SDS011;3647;48.792;9.802;2023-09-12T11:32:40;6.53;;;5.20;;
7211;SDS011;3647;48.792;9.802;2023-09-12T11:35:13;5.30;;;4.75;;
7211;SDS011;3647;48.792;9.802;2023-09-12T11:37:47;5.75;;;5.15;;
7211;SDS011;3647;48.792;9.802;2023-09-12T11:40:16;6.88;;;4.97;;
7211;SDS011;3647;48.792;9.802;2023-09-12T11:42:44;5.75;;;4.75;;
7211;SDS011;3647;48.792;9.802;2023-09-12T11:45:12;5.63;;;4.93;;
7211;SDS011;3647;48.792;9.802;2023-09-12T11:47:40;6.28;;;4.97;;
7211;SDS011;3647;48.792;9.802;2023-09-12T11:53:06;6.50;;;4.63;;
7211;SDS011;3647;48.792;9.802;2023-09-12T11:55:41;8.20;;;5.07;;
7211;SDS011;3647;48.792;9.802;2023-09-12T11:58:10;5.47;;;4.32;;
7211;SDS011;3647;48.792;9.802;2023-09-12T12:00:37;4.88;;;4.35;;
7211;SDS011;3647;48.792;9.802;2023-09-12T12:03:08;5.60;;;4.55;;
7211;SDS011;3647;48.792;9.802;2023-09-12T12:05:36;5.05;;;4.55;;
7211;SDS011;3647;48.792;9.802;2023-09-12T12:08:03;4.35;;;3.95;;
7211;SDS011;3647;48.792;9.802;2023-09-12T12:10:32;4.95;;;3.70;;
7211;SDS011;3647;48.792;9.802;2023-09-12T12:13:09;4.97;;;4.05;;
7211;SDS011;3647;48.792;9.802;2023-09-12T12:15:37;5.70;;;4.03;;
7211;SDS011;3647;48.792;9.802;2023-09-12T12:18:05;5.13;;;4.00;;
7211;SDS011;3647;48.792;9.802;2023-09-12T12:20:32;6.72;;;4.20;;
7211;SDS011;3647;48.792;9.802;2023-09-12T12:23:13;4.80;;;4.25;;
7211;SDS011;3647;48.792;9.802;2023-09-12T12:25:40;6.97;;;4.45;;
7211;SDS011;3647;48.792;9.802;2023-09-12T12:28:11;5.03;;;3.63;;
7211;SDS011;3647;48.792;9.802;2023-09-12T12:30:42;10.10;;;5.07;;
7211;SDS011;3647;48.792;9.802;2023-09-12T12:33:10;5.15;;;4.10;;
7211;SDS011;3647;48.792;9.802;2023-09-12T12:35:37;7.60;;;4.60;;
7211;SDS011;3647;48.792;9.802;2023-09-12T12:38:11;5.10;;;4.28;;
7211;SDS011;3647;48.792;9.802;2023-09-12T12:40:42;4.28;;;3.85;;
7211;SDS011;3647;48.792;9.802;2023-09-12T12:43:22;5.65;;;3.72;;
7211;SDS011;3647;48.792;9.802;2023-09-12T12:45:52;4.60;;;3.85;;
7211;SDS011;3647;48.792;9.802;2023-09-12T12:48:28;3.90;;;3.55;;
7211;SDS011;3647;48.792;9.802;2023-09-12T12:50:56;5.00;;;4.00;;
7211;SDS011;3647;48.792;9.802;2023-09-12T12:53:39;5.18;;;3.92;;
7211;SDS011;3647;48.792;9.802;2023-09-12T12:56:11;4.97;;;3.88;;
7211;SDS011;3647;48.792;9.802;2023-09-12T12:58:47;7.90;;;4.40;;
7211;SDS011;3647;48.792;9.802;2023-09-12T13:01:15;5.63;;;3.70;;
7211;SDS011;3647;48.792;9.802;2023-09-12T13:03:42;7.50;;;4.15;;
7211;SDS011;3647;48.792;9.802;2023-09-12T13:06:10;5.78;;;4.15;;
7211;SDS011;3647;48.792;9.802;2023-09-12T13:08:44;4.32;;;3.63;;
7211;SDS011;3647;48.792;9.802;2023-09-12T13:11:13;4.45;;;3.83;;
7211;SDS011;3647;48.792;9.802;2023-09-12T13:13:41;5.68;;;4.32;;
7211;SDS011;3647;48.792;9.802;2023-09-12T13:16:10;6.45;;;4.30;;
7211;SDS011;3647;48.792;9.802;2023-09-12T13:18:39;4.40;;;4.00;;
7211;SDS011;3647;48.792;9.802;2023-09-12T13:21:09;7.68;;;5.00;;
7211;SDS011;3647;48.792;9.802;2023-09-12T13:23:36;4.90;;;4.13;;
7211;SDS011;3647;48.792;9.802;2023-09-12T13:26:06;4.20;;;3.83;;
7211;SDS011;3647;48.792;9.802;2023-09-12T13:28:35;6.82;;;4.15;;
7211;SDS011;3647;48.792;9.802;2023-09-12T13:31:02;6.20;;;4.03;;
7211;SDS011;3647;48.792;9.802;2023-09-12T13:33:29;6.10;;;4.20;;
7211;SDS011;3647;48.792;9.802;2023-09-12T13:35:56;4.30;;;3.70;;
7211;SDS011;3647;48.792;9.802;2023-09-12T13:38:23;6.13;;;4.35;;
7211;SDS011;3647;48.792;9.802;2023-09-12T13:40:50;7.38;;;4.40;;
7211;SDS011;3647;48.792;9.802;2023-09-12T13:43:18;4.35;;;3.95;;
7211;SDS011;3647;48.792;9.802;2023-09-12T13:45:45;7.70;;;4.30;;
7211;SDS011;3647;48.792;9.802;2023-09-12T13:48:12;5.10;;;4.05;;
7211;SDS011;3647;48.792;9.802;2023-09-12T13:50:38;4.47;;;3.83;;
7211;SDS011;3647;48.792;9.802;2023-09-12T13:53:08;5.07;;;4.18;;
7211;SDS011;3647;48.792;9.802;2023-09-12T13:55:35;5.78;;;4.28;;
7211;SDS011;3647;48.792;9.802;2023-09-12T13:58:02;4.68;;;4.13;;
7211;SDS011;3647;48.792;9.802;2023-09-12T14:00:31;5.65;;;4.28;;
7211;SDS011;3647;48.792;9.802;2023-09-12T14:02:59;5.95;;;4.88;;
7211;SDS011;3647;48.792;9.802;2023-09-12T14:05:26;7.07;;;4.40;;
7211;SDS011;3647;48.792;9.802;2023-09-12T14:07:52;7.22;;;4.72;;
7211;SDS011;3647;48.792;9.802;2023-09-12T14:10:20;7.18;;;4.70;;
7211;SDS011;3647;48.792;9.802;2023-09-12T14:12:51;4.78;;;4.25;;
7211;SDS011;3647;48.792;9.802;2023-09-12T14:15:20;7.03;;;4.28;;
7211;SDS011;3647;48.792;9.802;2023-09-12T14:17:49;6.38;;;4.30;;
7211;SDS011;3647;48.792;9.802;2023-09-12T14:20:17;5.93;;;4.47;;
7211;SDS011;3647;48.792;9.802;2023-09-12T14:22:43;6.35;;;4.88;;
7211;SDS011;3647;48.792;9.802;2023-09-12T14:25:10;6.05;;;4.45;;
7211;SDS011;3647;48.792;9.802;2023-09-12T14:27:40;4.90;;;4.30;;
7211;SDS011;3647;48.792;9.802;2023-09-12T14:30:08;4.95;;;4.35;;
7211;SDS011;3647;48.792;9.802;2023-09-12T14:32:36;5.88;;;5.20;;
7211;SDS011;3647;48.792;9.802;2023-09-12T14:35:05;5.97;;;4.25;;
7211;SDS011;3647;48.792;9.802;2023-09-12T14:37:32;4.63;;;4.10;;
7211;SDS011;3647;48.792;9.802;2023-09-12T14:40:03;4.70;;;4.30;;
7211;SDS011;3647;48.792;9.802;2023-09-12T14:42:31;6.30;;;4.32;;
7211;SDS011;3647;48.792;9.802;2023-09-12T14:44:58;5.85;;;4.38;;
7211;SDS011;3647;48.792;9.802;2023-09-12T14:47:25;5.85;;;3.60;;
7211;SDS011;3647;48.792;9.802;2023-09-12T14:49:52;6.55;;;4.05;;
7211;SDS011;3647;48.792;9.802;2023-09-12T14:52:20;6.15;;;4.15;;
7211;SDS011;3647;48.792;9.802;2023-09-12T14:54:47;4.28;;;3.85;;
7211;SDS011;3647;48.792;9.802;2023-09-12T14:57:14;5.40;;;4.45;;
7211;SDS011;3647;48.792;9.802;2023-09-12T14:59:41;4.47;;;4.07;;
7211;SDS011;3647;48.792;9.802;2023-09-12T15:02:08;5.35;;;4.25;;
7211;SDS011;3647;48.792;9.802;2023-09-12T15:04:35;7.90;;;4.32;;
7211;SDS011;3647;48.792;9.802;2023-09-12T15:07:01;9.65;;;4.93;;
7211;SDS011;3647;48.792;9.802;2023-09-12T15:09:30;12.70;;;5.95;;
7211;SDS011;3647;48.792;9.802;2023-09-12T15:11:58;5.15;;;4.22;;
7211;SDS011;3647;48.792;9.802;2023-09-12T15:14:25;6.43;;;4.63;;
7211;SDS011;3647;48.792;9.802;2023-09-12T15:16:53;5.22;;;4.72;;
7211;SDS011;3647;48.792;9.802;2023-09-12T15:19:22;5.20;;;4.70;;
7211;SDS011;3647;48.792;9.802;2023-09-12T15:21:49;5.00;;;4.50;;
7211;SDS011;3647;48.792;9.802;2023-09-12T15:24:16;5.90;;;4.60;;
7211;SDS011;3647;48.792;9.802;2023-09-12T15:26:48;5.63;;;4.68;;
7211;SDS011;3647;48.792;9.802;2023-09-12T15:29:17;5.85;;;4.30;;
7211;SDS011;3647;48.792;9.802;2023-09-12T15:31:44;5.43;;;4.47;;
7211;SDS011;3647;48.792;9.802;2023-09-12T15:34:19;6.03;;;4.43;;
7211;SDS011;3647;48.792;9.802;2023-09-12T15:36:48;5.72;;;5.22;;
7211;SDS011;3647;48.792;9.802;2023-09-12T15:39:15;6.45;;;4.65;;
7211;SDS011;3647;48.792;9.802;2023-09-12T15:41:43;10.25;;;5.65;;
7211;SDS011;3647;48.792;9.802;2023-09-12T15:44:11;6.35;;;5.40;;
7211;SDS011;3647;48.792;9.802;2023-09-12T15:46:38;8.50;;;5.95;;
7211;SDS011;3647;48.792;9.802;2023-09-12T15:49:05;7.10;;;5.20;;
7211;SDS011;3647;48.792;9.802;2023-09-12T15:51:33;7.30;;;5.20;;
7211;SDS011;3647;48.792;9.802;2023-09-12T15:53:59;5.95;;;4.95;;
7211;SDS011;3647;48.792;9.802;2023-09-12T15:56:26;5.55;;;4.88;;
7211;SDS011;3647;48.792;9.802;2023-09-12T15:58:53;6.97;;;4.63;;
7211;SDS011;3647;48.792;9.802;2023-09-12T16:01:24;7.97;;;4.95;;
7211;SDS011;3647;48.792;9.802;2023-09-12T16:03:51;5.60;;;4.95;;
7211;SDS011;3647;48.792;9.802;2023-09-12T16:06:19;7.80;;;5.10;;
7211;SDS011;3647;48.792;9.802;2023-09-12T16:08:46;9.45;;;5.55;;
7211;SDS011;3647;48.792;9.802;2023-09-12T16:11:13;6.95;;;5.22;;
7211;SDS011;3647;48.792;9.802;2023-09-12T16:13:40;7.93;;;5.45;;
7211;SDS011;3647;48.792;9.802;2023-09-12T16:16:07;5.80;;;5.20;;
7211;SDS011;3647;48.792;9.802;2023-09-12T16:18:35;5.50;;;5.00;;
7211;SDS011;3647;48.792;9.802;2023-09-12T16:21:02;7.80;;;5.55;;
7211;SDS011;3647;48.792;9.802;2023-09-12T16:23:29;5.85;;;5.28;;
7211;SDS011;3647;48.792;9.802;2023-09-12T16:25:56;6.68;;;5.28;;
7211;SDS011;3647;48.792;9.802;2023-09-12T16:28:24;7.03;;;6.32;;
7211;SDS011;3647;48.792;9.802;2023-09-12T16:30:51;5.55;;;4.80;;
7211;SDS011;3647;48.792;9.802;2023-09-12T16:33:18;6.70;;;5.72;;
7211;SDS011;3647;48.792;9.802;2023-09-12T16:35:46;7.80;;;5.65;;
7211;SDS011;3647;48.792;9.802;2023-09-12T16:38:14;10.20;;;5.60;;
7211;SDS011;3647;48.792;9.802;2023-09-12T16:40:41;6.47;;;5.35;;
7211;SDS011;3647;48.792;9.802;2023-09-12T16:43:07;5.93;;;5.13;;
7211;SDS011;3647;48.792;9.802;2023-09-12T16:45:34;5.57;;;5.07;;
7211;SDS011;3647;48.792;9.802;2023-09-12T16:48:01;7.18;;;5.40;;
7211;SDS011;3647;48.792;9.802;2023-09-12T16:50:29;5.88;;;5.20;;
7211;SDS011;3647;48.792;9.802;2023-09-12T16:52:57;7.82;;;5.28;;
7211;SDS011;3647;48.792;9.802;2023-09-12T16:55:24;9.00;;;5.85;;
7211;SDS011;3647;48.792;9.802;2023-09-12T16:57:51;7.25;;;5.65;;
7211;SDS011;3647;48.792;9.802;2023-09-12T17:00:21;6.85;;;5.50;;
7211;SDS011;3647;48.792;9.802;2023-09-12T17:02:48;8.23;;;5.40;;
7211;SDS011;3647;48.792;9.802;2023-09-12T17:05:15;6.55;;;5.72;;
7211;SDS011;3647;48.792;9.802;2023-09-12T17:07:41;7.70;;;5.80;;
7211;SDS011;3647;48.792;9.802;2023-09-12T17:10:10;5.70;;;5.10;;
7211;SDS011;3647;48.792;9.802;2023-09-12T17:12:36;6.45;;;5.15;;
7211;SDS011;3647;48.792;9.802;2023-09-12T17:15:03;8.85;;;5.25;;
7211;SDS011;3647;48.792;9.802;2023-09-12T17:17:31;8.80;;;5.43;;
7211;SDS011;3647;48.792;9.802;2023-09-12T17:19:58;6.55;;;5.93;;
7211;SDS011;3647;48.792;9.802;2023-09-12T17:22:24;7.78;;;5.78;;
7211;SDS011;3647;48.792;9.802;2023-09-12T17:24:51;9.07;;;5.45;;
7211;SDS011;3647;48.792;9.802;2023-09-12T17:27:19;5.63;;;5.00;;
7211;SDS011;3647;48.792;9.802;2023-09-12T17:29:46;6.00;;;5.28;;
7211;SDS011;3647;48.792;9.802;2023-09-12T17:32:14;8.20;;;5.75;;
7211;SDS011;3647;48.792;9.802;2023-09-12T17:34:42;5.75;;;5.00;;
7211;SDS011;3647;48.792;9.802;2023-09-12T17:37:11;6.30;;;5.47;;
7211;SDS011;3647;48.792;9.802;2023-09-12T17:39:38;6.93;;;5.43;;
7211;SDS011;3647;48.792;9.802;2023-09-12T17:42:06;6.18;;;5.10;;
7211;SDS011;3647;48.792;9.802;2023-09-12T17:44:36;6.30;;;5.60;;
7211;SDS011;3647;48.792;9.802;2023-09-12T17:47:04;7.68;;;5.78;;
7211;SDS011;3647;48.792;9.802;2023-09-12T17:49:31;8.68;;;5.97;;
7211;SDS011;3647;48.792;9.802;2023-09-12T17:51:58;8.07;;;6.45;;
7211;SDS011;3647;48.792;9.802;2023-09-12T17:54:25;9.38;;;5.72;;
7211;SDS011;3647;48.792;9.802;2023-09-12T17:56:52;6.40;;;5.25;;
7211;SDS011;3647;48.792;9.802;2023-09-12T17:59:19;6.93;;;5.95;;
7211;SDS011;3647;48.792;9.802;2023-09-12T18:01:49;7.47;;;5.88;;
7211;SDS011;3647;48.792;9.802;2023-09-12T18:04:17;6.68;;;5.57;;
7211;SDS011;3647;48.792;9.802;2023-09-12T18:06:44;8.00;;;5.72;;
7211;SDS011;3647;48.792;9.802;2023-09-12T18:09:11;6.78;;;5.82;;
7211;SDS011;3647;48.792;9.802;2023-09-12T18:11:39;7.03;;;5.50;;
7211;SDS011;3647;48.792;9.802;2023-09-12T18:14:07;6.50;;;5.32;;
7211;SDS011;3647;48.792;9.802;2023-09-12T18:16:34;7.60;;;5.68;;
7211;SDS011;3647;48.792;9.802;2023-09-12T18:19:04;7.28;;;5.93;;
7211;SDS011;3647;48.792;9.802;2023-09-12T18:21:32;15.35;;;5.53;;
7211;SDS011;3647;48.792;9.802;2023-09-12T18:24:00;7.45;;;5.47;;
7211;SDS011;3647;48.792;9.802;2023-09-12T18:26:41;6.30;;;5.35;;
7211;SDS011;3647;48.792;9.802;2023-09-12T18:29:08;7.22;;;5.88;;
7211;SDS011;3647;48.792;9.802;2023-09-12T18:31:36;7.32;;;5.70;;
7211;SDS011;3647;48.792;9.802;2023-09-12T18:37:11;6.97;;;5.47;;
7211;SDS011;3647;48.792;9.802;2023-09-12T18:39:41;7.55;;;5.57;;
7211;SDS011;3647;48.792;9.802;2023-09-12T18:42:13;8.18;;;5.57;;
7211;SDS011;3647;48.792;9.802;2023-09-12T18:44:42;5.75;;;5.15;;
7211;SDS011;3647;48.792;9.802;2023-09-12T18:47:10;8.70;;;6.13;;
7211;SDS011;3647;48.792;9.802;2023-09-12T18:55:31;5.35;;;4.85;;
7211;SDS011;3647;48.792;9.802;2023-09-12T19:00:36;11.48;;;5.72;;
7211;SDS011;3647;48.792;9.802;2023-09-12T19:03:07;7.63;;;6.10;;
7211;SDS011;3647;48.792;9.802;2023-09-12T19:05:48;7.40;;;6.00;;
7211;SDS011;3647;48.792;9.802;2023-09-12T19:08:24;7.97;;;6.28;;
7211;SDS011;3647;48.792;9.802;2023-09-12T19:10:55;13.52;;;6.75;;
7211;SDS011;3647;48.792;9.802;2023-09-12T19:13:23;8.85;;;6.85;;
7211;SDS011;3647;48.792;9.802;2023-09-12T19:16:01;7.03;;;6.15;;
7211;SDS011;3647;48.792;9.802;2023-09-12T19:18:29;7.00;;;6.00;;
7211;SDS011;3647;48.792;9.802;2023-09-12T19:20:58;6.50;;;5.40;;
7211;SDS011;3647;48.792;9.802;2023-09-12T19:23:45;7.13;;;5.60;;
7211;SDS011;3647;48.792;9.802;2023-09-12T19:26:18;7.80;;;5.93;;
7211;SDS011;3647;48.792;9.802;2023-09-12T19:28:47;7.45;;;6.20;;
7211;SDS011;3647;48.792;9.802;2023-09-12T19:31:18;7.80;;;6.93;;
7211;SDS011;3647;48.792;9.802;2023-09-12T19:33:53;8.05;;;6.10;;
7211;SDS011;3647;48.792;9.802;2023-09-12T19:36:21;9.30;;;6.88;;
7211;SDS011;3647;48.792;9.802;2023-09-12T19:38:52;9.30;;;6.13;;
7211;SDS011;3647;48.792;9.802;2023-09-12T19:41:23;7.68;;;6.75;;
7211;SDS011;3647;48.792;9.802;2023-09-12T19:43:54;8.98;;;6.68;;
7211;SDS011;3647;48.792;9.802;2023-09-12T19:46:23;10.15;;;6.72;;
7211;SDS011;3647;48.792;9.802;2023-09-12T19:48:51;7.95;;;6.30;;
